EGMCLFPM

Guest
Details From EGMC - Southend
To LFPM - Melun Villaroche
Flight Number -
Tags Generated
Created
Modified
Stats Distance 194 nm / 359 km
Max Altitude 0 ft / 0 m
Waypoints 2
Social Downloads 0
Likes 0
Share VATSIM

Download

Looking for another format? Having issues loading an existing format? Contact us
Advertisement - Login to hide

Notes

Generated

Route

EGMC LFPM

ID Type Via Altitude Latitude Longitude Leg Dist Tot Dist Heading (true) Name
O EGMC APT - 0 ft / 0 m 51.56725˚ 0.68627˚ - 0 nm - -
O LFPM APT - 0 ft / 0 m 48.60602˚ 2.67175˚ 193 nm 193 nm 156° / 157° Melun Villaroche

Altitude Profile

Advertisement - Login to hide

Weather


0- 5 10 15 20 25 30 35+ Temperature / ° C

Clouds and Precipitation
Forecast for 2017-12-15 12:00 UTC. Updated an hour ago

Ground ~20,000 ft ~40,000 ft Winds

EGMC

Details ICAO EGMC (SEN)
Name Southend
Region United Kingdom
Timezone Europe/London (UTC+0.0)
Stats Elevation 49 ft / 15 m (AMSL)
Location 51.571443° 0.695583°
Runways 1
Magnetic Variation 0.171° W

METAR

EGMC 151020Z 30012KT 9999 FEW018 03/01 Q0994 RESHSN

Decode

TAF

Not found

Departure Runways

ID Width Length Bearing (true) Bearing (mag) Surface Threshold Offset Overrun Length
06 121 ft / 37 m 5,230 ft / 1,594 m 54.10° 54.27° Asphalt 558 ft / 170 m 0 ft / 0 m
24 121 ft / 37 m 5,230 ft / 1,594 m 234.11° 234.28° Asphalt 466 ft / 142 m 0 ft / 0 m

LFPM

Details ICAO LFPM
Name Melun Villaroche
Region France
Timezone Europe/Paris (UTC+1.0)
Stats Elevation 302 ft / 92 m (AMSL)
Location 48.608124° 2.674603°
Runways 2
Magnetic Variation 0.700° E

METAR

LFPM 151030Z AUTO 21016KT 9999 BKN014 BKN068 OVC180 05/03 Q0997

Decode

TAF

Not found

Destination Runways

ID Width Length Bearing (true) Bearing (mag) Surface Threshold Offset Overrun Length
01 98 ft / 30 m 4,263 ft / 1,299 m 12.67° 11.97° Asphalt 0 ft / 0 m 656 ft / 200 m
10 148 ft / 45 m 6,455 ft / 1,968 m 103.53° 102.83° Asphalt 0 ft / 0 m 2,723 ft / 830 m
19 98 ft / 30 m 4,263 ft / 1,299 m 192.67° 191.97° Asphalt 0 ft / 0 m 2,034 ft / 620 m
28 148 ft / 45 m 6,455 ft / 1,968 m 283.55° 282.85° Asphalt 279 ft / 85 m 0 ft / 0 m

Approach Navaids

Runway Type Ident Frequency Range Bearing (true) Bearing (mag) Slope Elevation
28 Localiser MV 111.55 MHz 18 nm / 33 km 283.52° 282.82° - 302 ft / 92 m (AMSL)
28 Glidescope MV 111.55 MHz 10 nm / 19 km 283.54° 282.84° 3.00° 302 ft / 92 m (AMSL)
28 DME MV 111.55 MHz 18 nm / 33 km - - - 302 ft / 92 m (AMSL)

Popular Alternatives